createdAt,value
2023-04-07T00:01:19.890Z,6.20
2023-04-07T00:03:46.948Z,6.14
2023-04-07T00:06:15.022Z,5.96
2023-04-07T00:08:41.954Z,6.09
2023-04-07T00:11:09.133Z,6.46
2023-04-07T00:13:36.113Z,6.22
2023-04-07T00:16:03.084Z,6.19
2023-04-07T00:18:30.022Z,6.08
2023-04-07T00:20:57.156Z,6.13
2023-04-07T00:23:24.024Z,6.32
2023-04-07T00:25:50.935Z,6.31
2023-04-07T00:28:17.799Z,6.25
2023-04-07T00:30:44.762Z,6.04
2023-04-07T00:33:11.687Z,6.08
2023-04-07T00:35:38.649Z,6.23
2023-04-07T00:38:05.520Z,6.26
2023-04-07T00:40:32.435Z,6.01
2023-04-07T00:42:59.330Z,5.99
2023-04-07T00:45:26.256Z,6.00
2023-04-07T00:47:53.142Z,6.01
2023-04-07T00:50:20.073Z,6.05
2023-04-07T00:52:47.051Z,6.08
2023-04-07T00:55:14.072Z,6.07
2023-04-07T00:57:41.870Z,6.23
2023-04-07T01:00:10.001Z,6.52
2023-04-07T01:02:42.002Z,6.54
2023-04-07T01:05:24.305Z,6.50
2023-04-07T01:08:04.459Z,6.49
2023-04-07T01:10:52.984Z,6.27
2023-04-07T01:13:22.181Z,6.51
2023-04-07T01:15:53.012Z,6.67
2023-04-07T01:18:24.511Z,6.63
2023-04-07T01:20:52.972Z,6.48
2023-04-07T01:23:32.306Z,6.21
2023-04-07T01:26:18.738Z,6.25
2023-04-07T01:28:57.939Z,6.14
2023-04-07T01:31:26.877Z,6.04
2023-04-07T01:33:56.216Z,6.01
2023-04-07T01:36:23.882Z,5.93
2023-04-07T01:38:51.549Z,6.12
2023-04-07T01:41:19.241Z,6.48
2023-04-07T01:43:48.115Z,6.49
2023-04-07T01:46:15.487Z,6.25
2023-04-07T01:48:42.613Z,6.41
2023-04-07T01:51:12.040Z,6.48
2023-04-07T01:53:39.434Z,6.76
2023-04-07T01:56:06.768Z,6.67
2023-04-07T01:58:36.170Z,6.48
2023-04-07T02:01:05.511Z,6.35
2023-04-07T02:03:44.856Z,6.48
2023-04-07T02:06:15.450Z,6.53
2023-04-07T02:08:47.919Z,6.50
2023-04-07T02:11:16.673Z,6.27
2023-04-07T02:13:44.842Z,6.55
2023-04-07T02:16:14.322Z,6.54
2023-04-07T02:18:42.009Z,6.54
2023-04-07T02:21:09.407Z,6.61
2023-04-07T02:23:36.544Z,6.74
2023-04-07T02:26:03.563Z,6.71
2023-04-07T02:28:30.718Z,6.97
2023-04-07T02:30:57.649Z,7.12
2023-04-07T02:33:24.946Z,7.17
2023-04-07T02:35:51.839Z,7.15
2023-04-07T02:38:18.753Z,7.29
2023-04-07T02:40:45.638Z,7.29
2023-04-07T02:43:12.605Z,7.08
2023-04-07T02:45:39.517Z,7.47
2023-04-07T02:48:06.495Z,7.87
2023-04-07T02:50:33.397Z,7.71
2023-04-07T02:53:00.481Z,7.90
2023-04-07T02:55:27.341Z,8.09
2023-04-07T02:57:54.418Z,7.80
2023-04-07T03:00:37.105Z,7.53
2023-04-07T03:03:11.085Z,7.76
2023-04-07T03:05:41.200Z,7.93
2023-04-07T03:08:12.287Z,7.56
2023-04-07T03:10:39.855Z,7.15
2023-04-07T03:13:08.622Z,7.17
2023-04-07T03:15:36.685Z,7.08
2023-04-07T03:18:03.811Z,6.88
2023-04-07T03:20:31.242Z,6.27
2023-04-07T03:23:03.085Z,6.05
2023-04-07T03:25:30.559Z,6.04
2023-04-07T03:27:57.976Z,6.18
2023-04-07T03:30:29.782Z,6.21
2023-04-07T03:32:57.025Z,6.33
2023-04-07T03:35:24.185Z,6.09
2023-04-07T03:37:51.289Z,6.21
2023-04-07T03:40:18.884Z,6.29
2023-04-07T03:42:46.963Z,6.22
2023-04-07T03:45:17.512Z,6.22
2023-04-07T03:47:49.635Z,6.33
2023-04-07T03:50:17.544Z,6.19
2023-04-07T03:53:10.510Z,6.29
2023-04-07T03:55:38.165Z,6.63
2023-04-07T03:58:12.793Z,7.02
2023-04-07T04:00:40.878Z,6.78
2023-04-07T04:03:11.063Z,6.98
2023-04-07T04:05:46.955Z,7.20
2023-04-07T04:08:18.685Z,7.14
2023-04-07T04:10:45.715Z,6.73
2023-04-07T04:13:13.208Z,6.46
2023-04-07T04:15:41.673Z,6.23
2023-04-07T04:18:14.022Z,6.02
2023-04-07T04:20:41.066Z,5.91
2023-04-07T04:23:08.693Z,6.08
2023-04-07T04:25:36.356Z,6.06
2023-04-07T04:28:06.926Z,5.97
2023-04-07T04:30:35.164Z,5.99
2023-04-07T04:33:03.769Z,6.07
2023-04-07T04:35:50.913Z,6.08
2023-04-07T04:38:20.037Z,6.11
2023-04-07T04:41:07.247Z,6.25
2023-04-07T04:43:34.637Z,6.30
2023-04-07T04:46:03.738Z,6.49
2023-04-07T04:48:35.644Z,6.51
2023-04-07T04:51:05.389Z,6.62
2023-04-07T04:53:32.761Z,6.79
2023-04-07T04:56:01.974Z,7.12
2023-04-07T04:58:40.491Z,6.88
2023-04-07T05:01:08.897Z,6.74
2023-04-07T05:03:41.382Z,6.86
2023-04-07T05:06:16.513Z,7.10
2023-04-07T05:08:45.142Z,7.31
2023-04-07T05:11:14.025Z,7.46
2023-04-07T05:13:44.543Z,7.54
2023-04-07T05:16:11.703Z,7.72
2023-04-07T05:18:39.046Z,7.67
2023-04-07T05:21:06.292Z,7.80
2023-04-07T05:23:35.975Z,8.08
2023-04-07T05:26:04.198Z,8.17
2023-04-07T05:28:31.398Z,8.19
2023-04-07T05:31:03.540Z,8.17
2023-04-07T05:33:34.363Z,8.34
2023-04-07T05:36:02.893Z,8.49
2023-04-07T05:38:31.768Z,8.44
2023-04-07T05:41:05.025Z,8.25
2023-04-07T05:43:35.118Z,8.10
2023-04-07T05:46:02.192Z,8.08
2023-04-07T05:48:30.507Z,7.77
2023-04-07T05:50:58.267Z,7.88
2023-04-07T05:53:25.449Z,7.76
2023-04-07T05:55:52.373Z,7.68
2023-04-07T05:58:34.971Z,7.78
2023-04-07T06:01:01.870Z,8.00
2023-04-07T06:03:29.127Z,8.21
2023-04-07T06:06:08.437Z,8.49
2023-04-07T06:08:35.433Z,8.45
2023-04-07T06:11:02.429Z,8.39
2023-04-07T06:13:29.395Z,8.97
2023-04-07T06:15:57.024Z,8.97
2023-04-07T06:18:23.887Z,9.61
2023-04-07T06:20:50.933Z,9.30
2023-04-07T06:23:18.680Z,9.20
2023-04-07T06:25:45.863Z,9.84
2023-04-07T06:28:12.864Z,9.34
2023-04-07T06:30:43.207Z,9.53
2023-04-07T06:33:12.435Z,9.67
2023-04-07T06:35:41.545Z,9.36
2023-04-07T06:38:11.685Z,9.91
2023-04-07T06:40:38.610Z,9.68
2023-04-07T06:43:06.378Z,9.99
2023-04-07T06:45:56.753Z,9.63
2023-04-07T06:48:23.689Z,9.72
2023-04-07T06:50:50.725Z,9.69
2023-04-07T06:53:17.894Z,9.38
2023-04-07T06:55:44.778Z,9.33
2023-04-07T06:58:11.762Z,9.45
2023-04-07T07:00:39.109Z,9.72
2023-04-07T07:03:06.615Z,10.57
2023-04-07T07:05:33.769Z,10.56
2023-04-07T07:08:00.633Z,10.66
2023-04-07T07:10:27.563Z,11.43
2023-04-07T07:12:54.417Z,12.71
2023-04-07T07:15:21.350Z,12.30
2023-04-07T07:17:48.259Z,12.99
2023-04-07T07:20:15.173Z,12.76
2023-04-07T07:22:42.025Z,14.08
2023-04-07T07:25:09.026Z,14.10
2023-04-07T07:27:35.925Z,14.61
2023-04-07T07:30:02.905Z,14.82
2023-04-07T07:32:29.776Z,14.72
2023-04-07T07:34:56.700Z,14.41
2023-04-07T07:37:23.554Z,15.12
2023-04-07T07:39:50.411Z,13.45
2023-04-07T07:42:17.273Z,12.78
2023-04-07T07:44:44.120Z,12.99
2023-04-07T07:47:12.607Z,13.23
2023-04-07T07:49:39.794Z,14.74
2023-04-07T07:52:07.673Z,11.21
2023-04-07T07:54:35.712Z,11.61
2023-04-07T07:57:04.585Z,12.04
2023-04-07T07:59:31.476Z,12.64
2023-04-07T08:01:58.773Z,11.69
2023-04-07T08:04:26.422Z,11.58
2023-04-07T08:06:53.866Z,11.65
2023-04-07T08:09:20.885Z,12.82
2023-04-07T08:11:48.739Z,12.85
2023-04-07T08:14:16.373Z,13.10
2023-04-07T08:16:43.731Z,12.72
2023-04-07T08:19:10.936Z,12.64
2023-04-07T08:21:38.043Z,12.61
2023-04-07T08:24:05.037Z,12.32
2023-04-07T08:26:32.066Z,12.99
2023-04-07T08:28:58.991Z,13.25
2023-04-07T08:31:26.526Z,13.72
2023-04-07T08:33:58.150Z,12.38
2023-04-07T08:36:26.363Z,11.35
2023-04-07T08:38:53.352Z,12.26
2023-04-07T08:41:39.747Z,12.88
2023-04-07T08:44:10.657Z,11.96
2023-04-07T08:46:41.210Z,11.07
2023-04-07T08:49:14.096Z,10.85
2023-04-07T08:51:46.653Z,10.95
2023-04-07T08:54:14.631Z,10.58
2023-04-07T08:56:42.467Z,11.32
2023-04-07T08:59:10.847Z,11.37
2023-04-07T09:01:38.167Z,11.39
2023-04-07T09:04:05.809Z,12.38
2023-04-07T09:06:33.197Z,12.79
2023-04-07T09:09:00.685Z,11.67
2023-04-07T09:11:28.083Z,11.93
2023-04-07T09:13:55.465Z,11.69
2023-04-07T09:16:23.912Z,11.84
2023-04-07T09:18:50.898Z,12.29
2023-04-07T09:21:17.887Z,12.18
2023-04-07T09:23:44.762Z,12.52
2023-04-07T09:26:24.892Z,13.05
2023-04-07T09:28:55.808Z,12.95
2023-04-07T09:31:26.304Z,12.78
2023-04-07T09:33:53.484Z,13.14
2023-04-07T09:36:20.587Z,13.92
2023-04-07T09:38:47.539Z,16.03
2023-04-07T09:41:17.145Z,17.07
2023-04-07T09:43:45.825Z,17.52
2023-04-07T09:46:17.031Z,15.73
2023-04-07T09:48:45.034Z,17.06
2023-04-07T09:51:18.474Z,15.19
2023-04-07T09:53:49.956Z,15.20
2023-04-07T09:56:22.430Z,15.20
2023-04-07T09:58:53.398Z,13.18
2023-04-07T10:01:21.379Z,12.26
2023-04-07T10:03:49.418Z,13.08
2023-04-07T10:06:16.873Z,13.49
2023-04-07T10:08:44.154Z,14.68
2023-04-07T10:11:11.060Z,15.32
2023-04-07T10:13:39.964Z,15.99
2023-04-07T10:16:07.595Z,15.17
2023-04-07T10:18:35.441Z,16.05
2023-04-07T10:21:04.015Z,16.39
2023-04-07T10:23:40.077Z,16.41
2023-04-07T10:26:08.018Z,16.58
2023-04-07T10:28:38.807Z,17.21
2023-04-07T10:31:05.766Z,16.59
2023-04-07T10:33:49.436Z,14.77
2023-04-07T10:36:17.396Z,14.48
2023-04-07T10:39:04.425Z,15.89
2023-04-07T10:41:37.220Z,16.29
2023-04-07T10:44:08.246Z,15.30
2023-04-07T10:46:59.278Z,14.14
2023-04-07T10:49:26.188Z,13.85
2023-04-07T10:52:11.636Z,14.70
2023-04-07T10:54:43.016Z,16.01
2023-04-07T10:57:11.997Z,16.10
2023-04-07T10:59:40.037Z,16.47
2023-04-07T11:02:09.961Z,16.17
2023-04-07T11:04:37.436Z,15.41
2023-04-07T11:07:04.362Z,15.48
2023-04-07T11:09:31.558Z,15.69
2023-04-07T11:11:58.422Z,15.29
2023-04-07T11:14:37.514Z,13.73
2023-04-07T11:17:04.716Z,14.32
2023-04-07T11:19:32.569Z,15.51
2023-04-07T11:22:28.504Z,16.08
2023-04-07T11:24:56.492Z,16.09
2023-04-07T11:27:23.815Z,15.37
2023-04-07T11:29:50.708Z,16.31
2023-04-07T11:32:24.955Z,17.28
2023-04-07T11:34:52.639Z,16.15
2023-04-07T11:37:27.415Z,14.48
2023-04-07T11:39:58.429Z,14.79
2023-04-07T11:42:38.326Z,15.57
2023-04-07T11:45:07.727Z,16.22
2023-04-07T11:47:38.760Z,16.58
2023-04-07T11:50:06.510Z,15.83
2023-04-07T11:52:59.348Z,16.46
2023-04-07T11:55:26.225Z,16.93
2023-04-07T11:57:53.278Z,16.41
2023-04-07T12:00:20.879Z,17.57
2023-04-07T12:02:47.982Z,17.07
2023-04-07T12:05:15.692Z,18.16
2023-04-07T12:07:52.577Z,20.59
2023-04-07T12:10:20.274Z,22.60
2023-04-07T12:12:47.364Z,23.04
2023-04-07T12:15:14.799Z,23.34
2023-04-07T12:17:46.853Z,21.76
2023-04-07T12:20:14.654Z,19.93
2023-04-07T12:22:41.812Z,18.70
2023-04-07T12:25:08.863Z,18.39
2023-04-07T12:27:42.667Z,17.52
2023-04-07T12:30:11.078Z,16.44
2023-04-07T12:32:38.359Z,16.41
2023-04-07T12:35:06.186Z,16.60
2023-04-07T12:37:33.960Z,15.78
2023-04-07T12:40:00.879Z,15.49
2023-04-07T12:42:28.197Z,16.06
2023-04-07T12:44:55.098Z,15.66
2023-04-07T12:47:22.245Z,15.22
2023-04-07T12:49:50.110Z,14.40
2023-04-07T12:52:17.556Z,14.85
2023-04-07T12:54:45.568Z,13.92
2023-04-07T12:57:12.523Z,14.00
2023-04-07T12:59:39.611Z,14.21
2023-04-07T13:02:07.065Z,15.33
2023-04-07T13:04:35.294Z,15.61
2023-04-07T13:07:03.303Z,15.33
2023-04-07T13:09:30.195Z,15.73
2023-04-07T13:11:57.888Z,16.00
2023-04-07T13:14:25.031Z,15.84
2023-04-07T13:16:52.059Z,14.62
2023-04-07T13:19:19.105Z,13.64
2023-04-07T13:21:47.687Z,14.20
2023-04-07T13:24:15.679Z,14.90
2023-04-07T13:26:42.520Z,13.95
2023-04-07T13:29:09.395Z,13.10
2023-04-07T13:31:36.517Z,13.79
2023-04-07T13:34:03.430Z,13.03
2023-04-07T13:36:30.409Z,12.55
2023-04-07T13:38:57.828Z,11.96
2023-04-07T13:41:24.702Z,12.87
2023-04-07T13:43:51.720Z,12.15
2023-04-07T13:48:49.621Z,11.52
2023-04-07T13:51:17.131Z,12.34
2023-04-07T13:53:44.106Z,12.58
2023-04-07T13:56:11.254Z,12.75
2023-04-07T13:58:38.123Z,12.59
2023-04-07T14:01:05.082Z,12.63
2023-04-07T14:03:32.053Z,12.86
2023-04-07T14:06:01.411Z,11.35
2023-04-07T14:08:28.513Z,11.39
2023-04-07T14:10:55.656Z,11.15
2023-04-07T14:13:23.192Z,11.00
2023-04-07T14:15:50.278Z,10.83
2023-04-07T14:18:17.651Z,11.42
2023-04-07T14:20:44.699Z,11.66
2023-04-07T14:23:11.915Z,10.70
2023-04-07T14:25:38.845Z,10.32
2023-04-07T14:28:05.737Z,10.48
2023-04-07T14:30:36.373Z,10.84
2023-04-07T14:33:05.064Z,10.97
2023-04-07T14:35:32.197Z,9.85
2023-04-07T14:37:59.198Z,9.87
2023-04-07T14:40:26.089Z,9.69
2023-04-07T14:43:06.979Z,9.32
2023-04-07T14:45:35.856Z,9.19
2023-04-07T14:48:03.221Z,9.32
2023-04-07T14:50:32.335Z,9.18
2023-04-07T14:52:59.320Z,9.08
2023-04-07T14:55:26.318Z,9.18
2023-04-07T14:57:53.132Z,9.06
2023-04-07T15:00:19.992Z,8.84
2023-04-07T15:02:47.099Z,8.93
2023-04-07T15:05:14.162Z,9.02
2023-04-07T15:07:41.025Z,8.81
2023-04-07T15:10:08.082Z,8.71
2023-04-07T15:12:34.937Z,8.69
2023-04-07T15:15:01.824Z,8.74
2023-04-07T15:17:42.589Z,8.56
2023-04-07T15:20:10.720Z,8.52
2023-04-07T15:22:37.548Z,8.42
2023-04-07T15:25:04.671Z,8.63
2023-04-07T15:27:31.540Z,8.58
2023-04-07T15:29:58.927Z,8.40
2023-04-07T15:32:26.045Z,8.37
2023-04-07T15:34:53.043Z,8.46
2023-04-07T15:37:19.981Z,8.40
2023-04-07T15:39:48.206Z,8.27
2023-04-07T15:42:15.040Z,8.32
2023-04-07T15:44:41.988Z,8.28
2023-04-07T15:47:09.333Z,8.32
2023-04-07T15:49:39.143Z,8.36
2023-04-07T15:52:06.159Z,8.39
2023-04-07T15:54:33.132Z,8.39
2023-04-07T15:57:00.025Z,8.44
2023-04-07T15:59:29.499Z,8.28
2023-04-07T16:01:56.585Z,8.32
2023-04-07T16:04:23.609Z,8.45
2023-04-07T16:06:50.584Z,8.44
2023-04-07T16:09:17.459Z,8.34
2023-04-07T16:11:44.386Z,8.40
2023-04-07T16:14:11.240Z,8.53
2023-04-07T16:16:40.923Z,8.40
2023-04-07T16:19:08.108Z,8.20
2023-04-07T16:21:35.185Z,8.18
2023-04-07T16:24:02.010Z,8.32
2023-04-07T16:26:28.926Z,8.42
2023-04-07T16:28:55.972Z,8.17
2023-04-07T16:31:22.946Z,8.31
2023-04-07T16:33:52.678Z,8.35
2023-04-07T16:36:19.587Z,8.16
2023-04-07T16:38:46.650Z,8.10
2023-04-07T16:41:13.510Z,8.05
2023-04-07T16:43:40.620Z,8.26
2023-04-07T16:46:07.615Z,8.32
2023-04-07T16:48:34.589Z,8.18
2023-04-07T16:51:01.482Z,8.24
2023-04-07T16:53:28.464Z,8.17
2023-04-07T16:55:55.665Z,8.22
2023-04-07T16:58:22.590Z,8.09
2023-04-07T17:00:49.528Z,8.17
2023-04-07T17:03:16.720Z,8.22
2023-04-07T17:05:44.922Z,8.11
2023-04-07T17:08:12.021Z,7.96
2023-04-07T17:10:38.872Z,8.08
2023-04-07T17:13:05.897Z,8.08
2023-04-07T17:15:35.644Z,8.04
2023-04-07T17:18:02.651Z,8.11
2023-04-07T17:20:29.516Z,8.32
2023-04-07T17:22:56.346Z,8.29
2023-04-07T17:25:23.241Z,8.19
2023-04-07T17:27:50.225Z,8.17
2023-04-07T17:30:18.395Z,8.03
2023-04-07T17:32:45.445Z,8.06
2023-04-07T17:35:12.330Z,8.02
2023-04-07T17:37:39.255Z,7.94
2023-04-07T17:40:06.664Z,8.13
2023-04-07T17:42:33.540Z,8.18
2023-04-07T17:45:00.725Z,8.04
2023-04-07T17:47:27.643Z,8.03
2023-04-07T17:49:54.549Z,8.05
2023-04-07T17:52:21.693Z,8.08
2023-04-07T17:54:48.568Z,7.86
2023-04-07T17:57:15.985Z,7.90
2023-04-07T17:59:42.955Z,7.94
2023-04-07T18:02:10.555Z,7.96
2023-04-07T18:04:38.100Z,7.94
2023-04-07T18:07:05.673Z,7.92
2023-04-07T18:09:33.156Z,8.09
2023-04-07T18:12:01.672Z,8.36
2023-04-07T18:14:28.839Z,8.44
2023-04-07T18:16:55.949Z,8.20
2023-04-07T18:19:25.819Z,8.17
2023-04-07T18:21:53.466Z,8.12
2023-04-07T18:24:20.972Z,8.14
2023-04-07T18:26:48.088Z,8.17
2023-04-07T18:29:15.085Z,8.05
2023-04-07T18:31:45.144Z,8.02
2023-04-07T18:34:12.118Z,7.87
2023-04-07T18:36:41.395Z,7.92
2023-04-07T18:39:08.387Z,8.02
2023-04-07T18:41:35.509Z,8.05
2023-04-07T18:44:02.584Z,7.79
2023-04-07T18:46:29.577Z,7.87
2023-04-07T18:48:56.479Z,8.06
2023-04-07T18:51:23.367Z,8.05
2023-04-07T18:53:50.633Z,7.99
2023-04-07T18:56:18.085Z,8.11
2023-04-07T18:58:46.069Z,8.21
2023-04-07T19:01:15.933Z,8.22
2023-04-07T19:03:43.145Z,8.11
2023-04-07T19:06:13.360Z,8.17
2023-04-07T19:08:40.406Z,8.26
2023-04-07T19:11:07.502Z,8.53
2023-04-07T19:13:34.456Z,8.83
2023-04-07T19:16:02.954Z,9.07
2023-04-07T19:18:31.892Z,8.98
2023-04-07T19:20:58.772Z,8.58
2023-04-07T19:23:25.734Z,8.93
2023-04-07T19:25:52.657Z,9.46
2023-04-07T19:28:19.557Z,9.71
2023-04-07T19:30:46.567Z,9.98
2023-04-07T19:33:13.691Z,9.59
2023-04-07T19:35:40.632Z,9.67
2023-04-07T19:38:07.775Z,9.86
2023-04-07T19:40:36.198Z,9.80
2023-04-07T19:43:03.107Z,9.28
2023-04-07T19:45:30.055Z,9.10
2023-04-07T19:47:57.285Z,8.98
2023-04-07T19:50:24.390Z,9.34
2023-04-07T19:52:53.478Z,9.62
2023-04-07T19:55:20.790Z,9.36
2023-04-07T19:57:48.807Z,9.72
2023-04-07T20:00:16.113Z,9.92
2023-04-07T20:02:51.854Z,9.97
2023-04-07T20:05:19.945Z,10.03
2023-04-07T20:07:47.283Z,10.10
2023-04-07T20:10:14.256Z,10.22
2023-04-07T20:12:41.249Z,9.82
2023-04-07T20:15:08.424Z,9.60
2023-04-07T20:17:37.078Z,9.78
2023-04-07T20:20:05.253Z,10.03
2023-04-07T20:22:33.290Z,9.99
2023-04-07T20:25:04.816Z,10.21
2023-04-07T20:27:32.072Z,10.17
2023-04-07T20:29:58.978Z,10.04
2023-04-07T20:32:26.628Z,9.70
2023-04-07T20:34:54.010Z,9.76
2023-04-07T20:37:21.627Z,9.91
2023-04-07T20:39:49.027Z,10.07
2023-04-07T20:42:16.198Z,10.07
2023-04-07T20:44:43.127Z,9.91
2023-04-07T20:47:10.501Z,10.08
2023-04-07T20:49:39.586Z,10.07
2023-04-07T20:52:07.019Z,9.90
2023-04-07T20:54:34.772Z,9.68
2023-04-07T20:57:02.346Z,9.53
2023-04-07T20:59:29.330Z,9.62
2023-04-07T21:01:56.870Z,9.73
2023-04-07T21:04:24.863Z,9.73
2023-04-07T21:06:51.807Z,9.79
2023-04-07T21:09:18.724Z,9.91
2023-04-07T21:11:45.627Z,9.93
2023-04-07T21:14:12.664Z,9.74
2023-04-07T21:16:39.591Z,9.77
2023-04-07T21:19:06.456Z,9.60
2023-04-07T21:21:33.531Z,9.24
2023-04-07T21:24:00.588Z,8.91
2023-04-07T21:26:27.529Z,9.22
2023-04-07T21:28:54.452Z,9.25
2023-04-07T21:31:22.493Z,9.15
2023-04-07T21:33:49.743Z,8.86
2023-04-07T21:36:16.590Z,9.08
2023-04-07T21:38:43.482Z,9.28
2023-04-07T21:41:10.405Z,9.11
2023-04-07T21:43:37.291Z,8.76
2023-04-07T21:46:04.216Z,8.66
2023-04-07T21:48:31.199Z,8.66
2023-04-07T21:50:58.553Z,8.41
2023-04-07T21:53:25.397Z,8.30
2023-04-07T21:55:52.533Z,8.50
2023-04-07T21:58:19.492Z,8.45
2023-04-07T22:00:50.264Z,8.09
2023-04-07T22:03:17.538Z,7.88
2023-04-07T22:05:44.849Z,7.88
2023-04-07T22:08:11.863Z,8.02
2023-04-07T22:10:38.989Z,8.14
2023-04-07T22:13:05.871Z,8.20
2023-04-07T22:15:32.768Z,8.51
2023-04-07T22:18:00.234Z,8.68
2023-04-07T22:20:27.284Z,8.66
2023-04-07T22:22:57.684Z,8.63
2023-04-07T22:25:25.618Z,8.66
2023-04-07T22:27:52.671Z,8.50
2023-04-07T22:30:20.076Z,8.33
2023-04-07T22:32:48.189Z,8.17
2023-04-07T22:35:15.164Z,8.27
2023-04-07T22:37:42.080Z,8.35
2023-04-07T22:40:09.886Z,7.84
2023-04-07T22:42:37.508Z,8.06
2023-04-07T22:45:04.603Z,7.96
2023-04-07T22:47:31.813Z,7.92
2023-04-07T22:49:58.785Z,7.94
2023-04-07T22:52:25.666Z,7.77
2023-04-07T22:54:52.603Z,8.02
2023-04-07T22:57:19.453Z,8.33
2023-04-07T22:59:46.550Z,8.30
2023-04-07T23:02:13.483Z,8.48
2023-04-07T23:04:40.379Z,8.64
2023-04-07T23:07:07.253Z,8.82
2023-04-07T23:09:34.164Z,8.99
2023-04-07T23:12:01.665Z,8.88
2023-04-07T23:14:28.595Z,9.09
2023-04-07T23:16:56.250Z,9.02
2023-04-07T23:19:23.370Z,9.21
2023-04-07T23:21:50.263Z,9.06
2023-04-07T23:24:17.161Z,8.98
2023-04-07T23:26:44.042Z,9.18
2023-04-07T23:29:11.127Z,9.23
2023-04-07T23:31:38.042Z,9.28
2023-04-07T23:34:04.936Z,9.04
2023-04-07T23:36:32.248Z,8.88
2023-04-07T23:38:59.105Z,8.99
2023-04-07T23:41:26.012Z,8.82
2023-04-07T23:43:52.868Z,8.73
2023-04-07T23:46:19.901Z,8.34
2023-04-07T23:48:46.854Z,7.62
2023-04-07T23:51:13.734Z,7.46
2023-04-07T23:53:40.761Z,7.12
2023-04-07T23:56:07.956Z,7.13
2023-04-07T23:58:34.813Z,6.53
